Time;durP1;ratioP1;P1;durP2;ratioP2;P2;SDS_P1;SDS_P2;PMS_P1;PMS_P2;Temp;Humidity;BMP_temperature;BMP_pressure;BME280_temperature;BME280_humidity;BME280_pressure;Samples;Min_cycle;Max_cycle;Signal;HPM_P1;HPM_P2
2021/11/13 00:00:01;;;;;;;106.82;53.50;;;3.60;99.90;;;;;;4973655;28;20465;-75
2021/11/13 00:02:27;;;;;;;109.43;55.05;;;3.60;99.90;;;;;;4981971;28;20022;-75
2021/11/13 00:04:52;;;;;;;96.00;51.88;;;3.60;99.90;;;;;;4984952;28;20027;-73
2021/11/13 00:07:18;;;;;;;99.70;51.40;;;3.60;99.90;;;;;;4983670;28;20411;-74
2021/11/13 00:09:44;;;;;;;97.05;51.13;;;3.60;99.90;;;;;;4982632;28;20034;-73
2021/11/13 00:12:10;;;;;;;108.32;53.28;;;3.60;99.90;;;;;;4986245;28;20030;-74
2021/11/13 00:14:36;;;;;;;90.75;49.88;;;3.60;99.90;;;;;;4987815;28;20070;-75
2021/11/13 00:17:02;;;;;;;117.85;55.92;;;3.60;99.90;;;;;;4981272;28;20436;-75
2021/11/13 00:19:29;;;;;;;104.70;51.92;;;3.60;99.90;;;;;;4992159;28;20038;-75
2021/11/13 00:21:55;;;;;;;118.82;55.67;;;3.50;99.90;;;;;;4968065;28;20049;-73
2021/11/13 00:24:20;;;;;;;116.45;56.22;;;3.60;99.90;;;;;;4985951;28;20061;-74
2021/11/13 00:26:46;;;;;;;122.10;55.15;;;3.60;99.90;;;;;;4986249;28;20027;-75
2021/11/13 00:29:11;;;;;;;125.07;57.30;;;3.50;99.90;;;;;;4982702;28;20080;-75
2021/11/13 00:31:38;;;;;;;125.32;56.35;;;3.60;99.90;;;;;;4981389;28;20555;-75
2021/11/13 00:34:03;;;;;;;93.78;50.22;;;3.60;99.90;;;;;;4984992;28;20031;-75
2021/11/13 00:36:29;;;;;;;121.53;56.38;;;3.50;99.90;;;;;;4981349;28;20015;-75
2021/11/13 00:38:55;;;;;;;111.22;51.90;;;3.50;99.90;;;;;;4981107;28;20038;-75
2021/11/13 00:41:21;;;;;;;137.65;57.25;;;3.50;99.90;;;;;;4985960;28;20026;-75
2021/11/13 00:43:47;;;;;;;113.03;52.20;;;3.50;99.90;;;;;;4979144;28;20367;-75
2021/11/13 00:46:13;;;;;;;131.77;56.53;;;3.50;99.90;;;;;;4987109;28;20026;-75
2021/11/13 00:48:38;;;;;;;110.22;53.03;;;3.40;99.90;;;;;;4984325;28;20038;-75
2021/11/13 00:51:04;;;;;;;102.30;49.92;;;3.40;99.90;;;;;;4977164;28;20037;-74
2021/11/13 00:53:30;;;;;;;111.32;51.10;;;3.50;99.90;;;;;;4982482;28;20042;-74
2021/11/13 00:55:56;;;;;;;114.05;51.65;;;3.50;99.90;;;;;;4984461;28;20046;-75
2021/11/13 00:58:21;;;;;;;132.80;57.90;;;3.40;99.90;;;;;;4989476;28;20412;-76
2021/11/13 01:00:48;;;;;;;113.65;54.35;;;3.50;99.90;;;;;;4989230;28;20027;-75
2021/11/13 01:03:14;;;;;;;119.97;55.05;;;3.50;99.90;;;;;;4980320;28;20076;-74
2021/11/13 01:05:39;;;;;;;119.43;54.83;;;3.50;99.90;;;;;;4988040;28;20027;-75
2021/11/13 01:08:05;;;;;;;116.50;54.30;;;3.50;99.90;;;;;;4988499;28;20026;-75
2021/11/13 01:10:30;;;;;;;132.82;58.50;;;3.60;99.90;;;;;;4980891;28;20031;-75
2021/11/13 01:12:56;;;;;;;102.22;50.42;;;3.50;99.90;;;;;;4987837;28;20057;-75
2021/11/13 01:15:22;;;;;;;140.25;60.42;;;3.40;99.90;;;;;;4980959;28;20026;-76
2021/11/13 01:17:47;;;;;;;125.15;57.35;;;3.50;99.90;;;;;;4985222;28;20042;-76
2021/11/13 01:20:16;;;;;;;132.13;59.53;;;3.70;99.90;;;;;;4979241;28;20393;-76
2021/11/13 01:22:42;;;;;;;127.47;56.40;;;3.50;99.90;;;;;;4981579;28;20050;-76
2021/11/13 01:25:09;;;;;;;108.00;53.70;;;3.50;99.90;;;;;;4985604;28;20026;-75
2021/11/13 01:27:34;;;;;;;110.53;54.97;;;3.50;99.90;;;;;;4987999;28;20026;-76
2021/11/13 01:30:00;;;;;;;111.50;55.38;;;3.50;99.90;;;;;;4979604;28;20045;-76
2021/11/13 01:32:26;;;;;;;125.38;57.53;;;3.50;99.90;;;;;;4992179;28;20026;-77
2021/11/13 01:34:52;;;;;;;123.03;58.63;;;3.40;99.90;;;;;;4975215;28;20026;-76
2021/11/13 01:37:17;;;;;;;131.38;59.03;;;3.50;99.90;;;;;;4984428;28;20077;-77
2021/11/13 01:39:43;;;;;;;147.57;61.58;;;3.50;99.90;;;;;;4990858;28;20019;-75
2021/11/13 01:42:09;;;;;;;148.23;61.00;;;3.50;99.90;;;;;;4991948;28;20034;-75
2021/11/13 01:44:35;;;;;;;168.15;65.50;;;3.60;99.90;;;;;;4984017;28;20023;-76
2021/11/13 01:47:02;;;;;;;146.15;60.97;;;3.40;99.90;;;;;;4991099;28;20030;-75
2021/11/13 01:49:27;;;;;;;124.28;57.45;;;3.30;99.90;;;;;;4984409;28;20030;-75
2021/11/13 01:51:53;;;;;;;148.80;61.80;;;3.40;99.90;;;;;;4988861;28;20380;-76
2021/11/13 01:54:20;;;;;;;115.25;56.72;;;3.30;99.90;;;;;;4982325;28;20564;-75
2021/11/13 01:56:49;;;;;;;125.57;57.97;;;3.40;99.90;;;;;;4987404;28;20373;-76
2021/11/13 01:59:15;;;;;;;131.02;58.72;;;3.30;99.90;;;;;;4988910;28;20018;-76
2021/11/13 02:01:41;;;;;;;132.32;60.03;;;3.50;99.90;;;;;;4984795;28;20026;-76
2021/11/13 02:04:07;;;;;;;112.93;53.38;;;3.30;99.90;;;;;;4982326;28;20034;-76
2021/11/13 02:06:34;;;;;;;113.45;55.55;;;3.30;99.90;;;;;;4984599;28;20099;-75
2021/11/13 02:08:59;;;;;;;102.13;51.42;;;3.50;99.90;;;;;;4984602;28;20027;-75
2021/11/13 02:11:26;;;;;;;107.40;52.38;;;3.40;99.90;;;;;;4973317;28;20151;-75
2021/11/13 02:13:54;;;;;;;88.32;46.97;;;3.30;99.90;;;;;;4975609;28;20035;-76
2021/11/13 02:16:19;;;;;;;87.50;48.10;;;3.30;99.90;;;;;;4992226;28;20030;-76
2021/11/13 02:18:45;;;;;;;79.00;45.20;;;3.30;99.90;;;;;;4991656;28;20054;-76
2021/11/13 02:21:12;;;;;;;84.95;48.38;;;3.30;99.90;;;;;;4988428;28;20034;-76
2021/11/13 02:23:39;;;;;;;85.90;47.90;;;3.30;99.90;;;;;;4981867;28;20030;-77
2021/11/13 02:26:05;;;;;;;89.65;49.15;;;3.30;99.90;;;;;;4984940;28;20516;-77
2021/11/13 02:28:35;;;;;;;95.82;48.33;;;3.30;99.90;;;;;;4976979;28;20031;-77
2021/11/13 02:31:01;;;;;;;83.82;46.70;;;3.30;99.90;;;;;;4993236;28;20030;-76
2021/11/13 02:33:27;;;;;;;86.15;47.10;;;3.30;99.90;;;;;;4990858;28;20081;-76
2021/11/13 02:35:53;;;;;;;90.97;48.85;;;3.30;99.90;;;;;;4985140;28;20078;-76
2021/11/13 02:38:20;;;;;;;91.60;49.10;;;3.30;99.90;;;;;;4982373;28;20023;-77
2021/11/13 02:40:49;;;;;;;89.13;48.22;;;3.30;99.90;;;;;;4982686;28;20061;-77
2021/11/13 02:43:16;;;;;;;82.60;47.35;;;3.30;99.90;;;;;;4988053;28;20029;-77
2021/11/13 02:45:43;;;;;;;84.05;46.35;;;3.20;99.90;;;;;;4985208;28;20485;-76
2021/11/13 02:48:10;;;;;;;79.30;46.58;;;3.30;99.90;;;;;;4981440;28;20033;-76
2021/11/13 02:50:37;;;;;;;90.60;47.45;;;3.20;99.90;;;;;;4981370;28;20023;-76
2021/11/13 02:53:09;;;;;;;92.40;48.33;;;3.30;99.90;;;;;;4989621;28;20026;-76
2021/11/13 02:55:34;;;;;;;102.75;52.28;;;3.20;99.90;;;;;;4976122;28;20485;-77
2021/11/13 02:58:00;;;;;;;87.15;47.92;;;3.30;99.90;;;;;;4978908;28;20118;-76
2021/11/13 03:00:27;;;;;;;91.70;49.50;;;3.30;99.90;;;;;;4993705;28;20022;-76
2021/11/13 03:02:54;;;;;;;100.65;50.53;;;3.30;99.90;;;;;;4981019;28;20027;-77
2021/11/13 03:05:30;;;;;;;95.45;50.75;;;3.30;99.90;;;;;;4989841;28;20077;-77
2021/11/13 03:07:58;;;;;;;87.07;47.47;;;3.20;99.90;;;;;;4992719;28;20026;-76
2021/11/13 03:10:26;;;;;;;95.10;48.45;;;3.30;99.90;;;;;;4979904;28;20065;-77
2021/11/13 03:12:52;;;;;;;92.53;49.60;;;3.20;99.90;;;;;;4986167;28;20043;-75
2021/11/13 03:15:20;;;;;;;98.05;50.33;;;3.30;99.90;;;;;;4974506;28;20389;-75
2021/11/13 03:17:46;;;;;;;89.78;50.03;;;3.30;99.90;;;;;;4982381;28;20038;-77
2021/11/13 03:20:15;;;;;;;91.90;50.40;;;3.30;99.90;;;;;;4983167;28;20026;-77
2021/11/13 03:22:41;;;;;;;88.53;50.30;;;3.30;99.90;;;;;;4992209;28;20424;-77
2021/11/13 03:25:10;;;;;;;95.10;52.47;;;3.20;99.90;;;;;;4979517;28;20031;-76
2021/11/13 03:27:38;;;;;;;86.28;47.85;;;3.20;99.90;;;;;;4985164;28;20022;-77
2021/11/13 03:30:06;;;;;;;98.07;52.78;;;3.20;99.90;;;;;;4980918;28;20037;-76
2021/11/13 03:32:33;;;;;;;89.03;49.97;;;3.20;99.90;;;;;;4991940;28;20033;-76
2021/11/13 03:34:59;;;;;;;101.28;52.67;;;3.20;99.90;;;;;;4990608;28;20062;-77
2021/11/13 03:37:24;;;;;;;94.43;50.33;;;3.30;99.90;;;;;;4974084;28;20051;-75
2021/11/13 03:39:50;;;;;;;101.82;51.55;;;3.30;99.90;;;;;;4977255;28;20030;-77
2021/11/13 03:42:16;;;;;;;106.70;54.65;;;3.20;99.90;;;;;;4983271;28;20038;-76
2021/11/13 03:44:41;;;;;;;103.07;54.72;;;3.20;99.90;;;;;;4972489;28;20437;-76
2021/11/13 03:47:07;;;;;;;97.25;51.70;;;3.20;99.90;;;;;;4993172;28;20032;-77
2021/11/13 03:49:32;;;;;;;104.20;54.00;;;3.20;99.90;;;;;;4991669;28;20026;-77
2021/11/13 03:51:59;;;;;;;100.97;52.85;;;3.20;99.90;;;;;;4982940;28;20477;-75
2021/11/13 03:54:25;;;;;;;99.80;52.63;;;3.20;99.90;;;;;;4976454;28;20050;-76
2021/11/13 03:56:51;;;;;;;103.70;53.22;;;3.20;99.90;;;;;;4984009;28;20038;-76
2021/11/13 03:59:16;;;;;;;96.90;52.10;;;3.10;99.90;;;;;;4987590;28;20023;-76
2021/11/13 04:01:42;;;;;;;93.70;51.20;;;3.20;99.90;;;;;;4981530;28;20026;-75
2021/11/13 04:04:08;;;;;;;102.78;52.72;;;3.20;99.90;;;;;;4978656;28;20505;-76
2021/11/13 04:06:33;;;;;;;101.15;53.63;;;3.10;99.90;;;;;;4991654;28;20026;-76
2021/11/13 04:08:59;;;;;;;103.38;53.58;;;3.20;99.90;;;;;;4980388;28;20027;-75
2021/11/13 04:11:24;;;;;;;107.45;56.42;;;3.20;99.90;;;;;;4984160;28;20105;-76
2021/11/13 04:13:50;;;;;;;105.03;55.08;;;3.20;99.90;;;;;;4986967;28;20127;-76
2021/11/13 04:16:15;;;;;;;109.15;57.70;;;3.20;99.90;;;;;;4980395;28;20034;-75
2021/11/13 04:18:41;;;;;;;100.68;55.15;;;3.20;99.90;;;;;;4978473;28;20432;-76
2021/11/13 04:21:07;;;;;;;96.95;52.58;;;3.10;99.90;;;;;;4983221;28;20037;-76
2021/11/13 04:23:33;;;;;;;78.60;47.45;;;3.10;99.90;;;;;;4973441;28;20026;-75
2021/11/13 04:25:59;;;;;;;77.30;47.25;;;3.10;99.90;;;;;;4973308;28;20026;-75
2021/11/13 04:28:24;;;;;;;75.55;47.30;;;3.10;99.90;;;;;;4989989;28;20041;-76
2021/11/13 04:30:50;;;;;;;79.88;47.03;;;3.10;99.90;;;;;;4994890;28;20061;-76
2021/11/13 04:33:16;;;;;;;71.43;44.60;;;3.10;99.90;;;;;;4978094;28;20034;-75
2021/11/13 04:35:49;;;;;;;73.18;44.70;;;3.20;99.90;;;;;;4974813;28;20023;-76
2021/11/13 04:38:15;;;;;;;74.38;44.22;;;3.10;99.90;;;;;;4977208;28;20222;-76
2021/11/13 04:40:41;;;;;;;68.88;42.22;;;3.20;99.90;;;;;;4981480;28;20027;-75
2021/11/13 04:43:07;;;;;;;64.25;40.58;;;3.20;99.90;;;;;;4973129;28;20081;-75
2021/11/13 04:45:33;;;;;;;60.67;39.90;;;3.20;99.90;;;;;;4982943;28;20105;-75
2021/11/13 04:47:59;;;;;;;67.35;40.33;;;3.20;99.90;;;;;;4992488;28;20045;-75
2021/11/13 04:50:27;;;;;;;64.88;40.60;;;3.20;99.90;;;;;;4980919;28;20585;-75
2021/11/13 04:52:53;;;;;;;62.97;40.15;;;3.10;99.90;;;;;;4984327;28;20038;-75
2021/11/13 04:55:19;;;;;;;63.58;38.83;;;3.30;99.90;;;;;;4982367;28;20029;-76
2021/11/13 04:57:46;;;;;;;55.75;37.45;;;3.10;99.90;;;;;;4979329;28;20023;-75
2021/11/13 05:00:15;;;;;;;56.33;36.83;;;3.20;99.90;;;;;;4980256;28;20081;-75
2021/11/13 05:02:41;;;;;;;54.80;36.15;;;3.20;99.90;;;;;;4985880;28;20437;-74
2021/11/13 05:05:07;;;;;;;49.72;35.28;;;3.20;99.90;;;;;;4973323;28;20041;-75
2021/11/13 05:07:33;;;;;;;54.30;34.95;;;3.20;99.90;;;;;;4978277;28;20041;-75
2021/11/13 05:09:59;;;;;;;51.55;35.30;;;3.20;99.90;;;;;;4980972;28;20035;-75
2021/11/13 05:12:25;;;;;;;50.65;33.45;;;3.30;99.90;;;;;;4984362;28;20027;-75
2021/11/13 05:14:50;;;;;;;46.17;33.67;;;3.10;99.90;;;;;;4982712;28;20456;-74
2021/11/13 05:17:17;;;;;;;43.85;31.83;;;3.10;99.90;;;;;;4979173;28;20117;-75
2021/11/13 05:19:42;;;;;;;40.30;29.63;;;3.10;99.90;;;;;;4980802;28;20118;-75
2021/11/13 05:22:08;;;;;;;42.97;30.55;;;3.20;99.90;;;;;;4975852;28;20173;-75
2021/11/13 05:24:34;;;;;;;38.72;29.25;;;3.20;99.90;;;;;;4991877;28;20052;-75
2021/11/13 05:27:00;;;;;;;42.88;30.30;;;3.20;99.90;;;;;;4974206;28;20027;-75
2021/11/13 05:29:26;;;;;;;40.67;28.88;;;3.20;99.90;;;;;;4972633;28;20058;-75
2021/11/13 05:31:51;;;;;;;39.95;28.67;;;3.30;99.90;;;;;;4976912;28;20385;-75
2021/11/13 05:34:17;;;;;;;40.47;29.13;;;3.10;99.90;;;;;;4978285;28;20042;-72
2021/11/13 05:36:42;;;;;;;36.55;27.52;;;3.10;99.90;;;;;;4978830;28;20031;-73
2021/11/13 05:39:08;;;;;;;36.97;26.98;;;3.20;99.90;;;;;;4975880;28;20030;-75
2021/11/13 05:41:35;;;;;;;38.17;27.67;;;3.10;99.90;;;;;;4975041;28;20424;-76
2021/11/13 05:44:01;;;;;;;35.85;26.85;;;3.30;99.90;;;;;;4981391;28;20035;-77
2021/11/13 05:46:26;;;;;;;37.63;27.40;;;3.10;99.90;;;;;;4972593;28;20588;-76
2021/11/13 05:48:52;;;;;;;35.75;26.65;;;3.00;99.90;;;;;;4972468;28;20106;-77
2021/11/13 05:51:17;;;;;;;37.50;27.33;;;3.10;99.90;;;;;;4970990;28;20477;-76
2021/11/13 05:53:43;;;;;;;36.10;26.35;;;3.10;99.90;;;;;;4982581;28;20031;-74
2021/11/13 05:56:09;;;;;;;34.58;27.58;;;3.10;99.90;;;;;;4975320;28;20374;-74
2021/11/13 05:58:34;;;;;;;33.80;27.50;;;3.10;99.90;;;;;;4972526;28;20085;-76
2021/11/13 06:01:00;;;;;;;41.78;32.10;;;3.20;99.90;;;;;;4972271;28;20027;-77
2021/11/13 06:03:26;;;;;;;38.88;30.33;;;3.10;99.90;;;;;;4972576;28;20070;-76
2021/11/13 06:05:51;;;;;;;36.47;28.65;;;3.10;99.90;;;;;;4979704;28;20022;-76
2021/11/13 06:08:17;;;;;;;37.80;29.10;;;3.10;99.90;;;;;;4986036;28;20429;-77
2021/11/13 06:10:42;;;;;;;37.17;30.38;;;3.10;99.90;;;;;;4974693;28;20027;-75
2021/11/13 06:13:08;;;;;;;37.25;28.65;;;3.20;99.90;;;;;;4983764;28;20080;-75
2021/11/13 06:15:34;;;;;;;37.38;30.02;;;3.30;99.90;;;;;;4981021;28;20026;-76
2021/11/13 06:17:59;;;;;;;37.72;30.83;;;3.10;99.90;;;;;;4985885;28;20030;-76
2021/11/13 06:20:25;;;;;;;38.80;32.45;;;3.10;99.90;;;;;;4974513;28;20046;-76
2021/11/13 06:22:51;;;;;;;41.70;33.60;;;3.10;99.90;;;;;;4985049;28;20034;-76
2021/11/13 06:25:16;;;;;;;43.42;34.22;;;3.10;99.90;;;;;;4980859;28;20463;-76
2021/11/13 06:27:43;;;;;;;42.75;32.90;;;3.10;99.90;;;;;;4984448;28;20433;-76
2021/11/13 06:30:11;;;;;;;43.67;33.30;;;3.10;99.90;;;;;;4975653;28;20078;-76
2021/11/13 06:32:37;;;;;;;44.13;34.97;;;3.10;99.90;;;;;;4985145;28;20030;-76
2021/11/13 06:35:05;;;;;;;41.38;33.00;;;3.20;99.90;;;;;;4991601;28;20042;-76
2021/11/13 06:37:30;;;;;;;41.22;33.15;;;3.10;99.90;;;;;;4975330;28;20030;-76
2021/11/13 06:39:56;;;;;;;42.00;32.78;;;3.10;99.90;;;;;;4988556;28;20023;-76
2021/11/13 06:42:22;;;;;;;40.58;32.30;;;3.20;99.90;;;;;;4983811;28;20030;-76
2021/11/13 06:44:47;;;;;;;54.00;40.70;;;3.20;99.90;;;;;;4991367;28;20031;-76
2021/11/13 06:47:13;;;;;;;38.40;30.13;;;3.20;99.90;;;;;;4983723;28;20041;-76
2021/11/13 06:49:39;;;;;;;40.03;31.25;;;3.20;99.90;;;;;;4981769;28;20034;-76
2021/11/13 06:52:04;;;;;;;33.00;27.15;;;3.20;99.90;;;;;;4983648;28;20066;-75
2021/11/13 06:54:30;;;;;;;35.03;26.60;;;3.10;99.90;;;;;;4973938;28;20033;-76
2021/11/13 06:56:56;;;;;;;30.92;26.27;;;3.20;99.90;;;;;;4974058;28;20057;-78
2021/11/13 06:59:21;;;;;;;32.13;24.45;;;3.20;99.90;;;;;;4987128;28;20027;-76
2021/11/13 07:01:48;;;;;;;32.22;25.38;;;3.10;99.90;;;;;;4974863;28;20555;-76
2021/11/13 07:04:13;;;;;;;28.95;24.27;;;3.10;99.90;;;;;;4988064;28;20026;-76
2021/11/13 07:06:39;;;;;;;34.05;26.40;;;3.20;99.90;;;;;;4975036;28;20375;-76
2021/11/13 07:09:04;;;;;;;31.63;24.98;;;3.20;99.90;;;;;;4974873;28;20037;-76
2021/11/13 07:11:30;;;;;;;33.42;25.00;;;3.30;99.90;;;;;;4973333;28;20027;-76
2021/11/13 07:13:56;;;;;;;31.67;26.10;;;3.20;99.90;;;;;;4974704;28;20608;-75
2021/11/13 07:16:22;;;;;;;34.72;28.35;;;3.20;99.90;;;;;;4972618;28;20038;-75
2021/11/13 07:18:47;;;;;;;33.45;26.63;;;3.20;99.90;;;;;;4987608;28;20057;-75
2021/11/13 07:21:13;;;;;;;34.42;26.65;;;3.20;99.90;;;;;;4982791;28;20029;-73
2021/11/13 07:23:38;;;;;;;32.85;27.20;;;3.20;99.90;;;;;;4979210;28;20097;-75
2021/11/13 07:26:11;;;;;;;33.00;27.33;;;3.20;99.90;;;;;;4974229;28;20027;-75
2021/11/13 07:28:41;;;;;;;32.88;26.27;;;3.30;99.90;;;;;;4968764;28;20077;-74
2021/11/13 07:31:10;;;;;;;30.77;26.10;;;3.40;99.90;;;;;;4974262;28;20098;-75
2021/11/13 07:33:36;;;;;;;31.70;25.52;;;3.30;99.90;;;;;;4972150;28;20042;-74
2021/11/13 07:36:02;;;;;;;34.70;26.33;;;3.30;99.90;;;;;;4978957;28;20034;-74
2021/11/13 07:38:28;;;;;;;31.95;25.35;;;3.30;99.90;;;;;;4981290;28;20118;-75
2021/11/13 07:40:53;;;;;;;30.73;24.98;;;3.30;99.90;;;;;;4971008;28;20105;-75
2021/11/13 07:43:19;;;;;;;34.30;26.45;;;3.30;99.90;;;;;;4979986;28;20034;-75
2021/11/13 07:45:45;;;;;;;32.67;26.17;;;3.30;99.90;;;;;;4976284;28;20081;-75
2021/11/13 07:48:10;;;;;;;32.50;26.48;;;3.30;99.90;;;;;;4973756;28;20103;-75
2021/11/13 07:50:37;;;;;;;34.58;26.20;;;3.40;99.90;;;;;;4972546;28;20050;-76
2021/11/13 07:53:07;;;;;;;32.67;26.10;;;3.50;99.90;;;;;;4985714;28;20477;-76
2021/11/13 07:55:34;;;;;;;32.22;26.23;;;3.50;99.90;;;;;;4985667;28;20026;-76
2021/11/13 07:57:59;;;;;;;34.00;28.73;;;3.40;99.90;;;;;;4980180;28;20026;-76
2021/11/13 08:00:28;;;;;;;39.85;32.05;;;3.50;99.90;;;;;;4988808;28;20393;-75
2021/11/13 08:02:55;;;;;;;39.92;32.22;;;3.70;99.90;;;;;;4991793;28;20026;-76
2021/11/13 08:05:22;;;;;;;32.80;27.17;;;3.50;99.90;;;;;;4991104;28;20117;-75
2021/11/13 08:07:48;;;;;;;39.70;31.52;;;3.60;99.90;;;;;;4978492;28;20022;-76
2021/11/13 08:10:14;;;;;;;38.63;31.00;;;3.60;99.90;;;;;;4980151;28;20022;-76
2021/11/13 08:12:41;;;;;;;34.53;28.95;;;3.60;99.90;;;;;;4984810;28;20035;-76
2021/11/13 08:15:08;;;;;;;38.72;29.90;;;3.60;99.90;;;;;;4986979;28;20029;-76
2021/11/13 08:17:33;;;;;;;37.35;30.15;;;3.70;99.90;;;;;;4991756;28;20381;-76
2021/11/13 08:19:59;;;;;;;41.65;33.00;;;3.70;99.90;;;;;;4979980;28;20019;-75
2021/11/13 08:22:25;;;;;;;39.03;32.65;;;3.70;99.90;;;;;;4984277;28;20037;-76
2021/11/13 08:24:51;;;;;;;38.83;30.77;;;3.70;99.90;;;;;;4972914;28;20031;-76
2021/11/13 08:27:17;;;;;;;40.85;30.65;;;3.80;99.90;;;;;;4992442;28;20027;-76
2021/11/13 08:29:43;;;;;;;35.70;28.17;;;3.80;99.90;;;;;;4979522;28;20097;-76
2021/11/13 08:32:08;;;;;;;53.95;42.80;;;3.90;99.90;;;;;;4985446;28;20031;-76
2021/11/13 08:34:35;;;;;;;39.08;30.05;;;3.80;99.90;;;;;;4987031;28;20105;-75
2021/11/13 08:37:01;;;;;;;38.00;31.30;;;3.90;99.90;;;;;;4978140;28;20031;-77
2021/11/13 08:39:29;;;;;;;34.10;29.42;;;4.00;99.90;;;;;;4979926;28;20129;-76
2021/11/13 08:41:55;;;;;;;37.70;29.55;;;4.00;99.90;;;;;;4985881;28;20034;-76
2021/11/13 08:44:20;;;;;;;39.47;30.67;;;4.10;99.90;;;;;;4986173;28;20026;-76
2021/11/13 08:46:46;;;;;;;31.90;26.95;;;4.10;99.90;;;;;;4984936;28;20085;-76
2021/11/13 08:49:11;;;;;;;31.88;26.33;;;4.10;99.90;;;;;;4971887;28;20034;-76
2021/11/13 08:51:37;;;;;;;30.30;25.23;;;4.20;99.90;;;;;;4985794;28;20409;-75
2021/11/13 08:54:02;;;;;;;30.15;24.80;;;4.10;99.90;;;;;;4962756;28;20038;-75
2021/11/13 08:56:30;;;;;;;28.17;23.55;;;4.20;99.90;;;;;;4969225;28;20025;-76
2021/11/13 08:58:57;;;;;;;28.70;22.83;;;4.30;99.90;;;;;;4991313;28;20049;-74
2021/11/13 09:01:26;;;;;;;29.00;23.40;;;4.30;99.90;;;;;;4964533;28;20113;-75
2021/11/13 09:03:54;;;;;;;27.35;21.92;;;4.30;99.90;;;;;;4973353;28;20057;-74
2021/11/13 09:06:22;;;;;;;26.63;21.55;;;4.40;99.90;;;;;;4983787;28;20548;-75
2021/11/13 09:08:50;;;;;;;26.73;21.70;;;4.30;99.90;;;;;;4984816;28;20030;-75
2021/11/13 09:11:20;;;;;;;25.23;20.70;;;4.40;99.90;;;;;;4972640;28;20505;-75
2021/11/13 09:13:48;;;;;;;23.88;19.98;;;4.50;99.90;;;;;;4984744;28;20089;-75
2021/11/13 09:16:13;;;;;;;24.10;20.05;;;4.70;99.90;;;;;;4980838;28;20061;-75
2021/11/13 09:18:39;;;;;;;23.05;20.05;;;4.60;99.90;;;;;;4977973;28;20109;-76
2021/11/13 09:21:06;;;;;;;26.98;20.67;;;4.70;99.90;;;;;;4983930;28;20034;-75
2021/11/13 09:23:32;;;;;;;24.35;19.83;;;4.70;99.90;;;;;;4959808;28;20055;-74
2021/11/13 09:25:58;;;;;;;21.58;19.08;;;4.70;99.90;;;;;;4972930;28;20046;-75
2021/11/13 09:28:24;;;;;;;27.33;20.10;;;4.80;99.90;;;;;;4972799;28;20062;-75
2021/11/13 09:30:49;;;;;;;20.23;18.10;;;4.90;99.90;;;;;;4980485;28;20027;-75
2021/11/13 09:33:15;;;;;;;24.67;19.45;;;4.90;99.90;;;;;;4976667;28;20400;-74
2021/11/13 09:35:43;;;;;;;23.98;19.23;;;4.80;99.90;;;;;;4972747;28;20026;-74
2021/11/13 09:38:10;;;;;;;23.48;18.80;;;4.90;99.90;;;;;;4985608;28;20544;-74
2021/11/13 09:40:36;;;;;;;26.58;19.02;;;5.00;99.90;;;;;;4975591;28;20041;-75
2021/11/13 09:43:04;;;;;;;26.52;21.25;;;5.00;99.90;;;;;;4988364;28;20501;-74
2021/11/13 09:45:30;;;;;;;25.13;20.20;;;5.00;99.90;;;;;;4975232;28;20055;-75
2021/11/13 09:47:58;;;;;;;30.80;20.88;;;5.30;99.90;;;;;;4976468;28;20027;-74
2021/11/13 09:50:26;;;;;;;27.73;21.35;;;5.20;99.90;;;;;;4976391;28;20038;-74
2021/11/13 09:52:52;;;;;;;27.15;20.85;;;5.30;99.90;;;;;;4976161;28;20027;-75
2021/11/13 09:55:21;;;;;;;25.67;18.65;;;5.40;99.90;;;;;;4973744;28;20548;-75
2021/11/13 09:57:47;;;;;;;31.13;22.25;;;5.40;99.90;;;;;;4974893;28;20077;-75
2021/11/13 10:00:16;;;;;;;31.05;22.60;;;5.40;99.90;;;;;;4978381;28;20022;-74
2021/11/13 10:02:43;;;;;;;24.65;18.13;;;5.40;99.90;;;;;;4979913;28;20030;-75
2021/11/13 10:05:12;;;;;;;24.33;19.55;;;5.30;99.90;;;;;;4992160;28;20540;-75
2021/11/13 10:07:38;;;;;;;27.33;22.13;;;5.40;99.90;;;;;;4981253;28;20053;-74
2021/11/13 10:10:07;;;;;;;34.05;24.63;;;5.30;99.90;;;;;;4982350;28;20037;-74
2021/11/13 10:12:38;;;;;;;30.70;23.00;;;5.30;99.90;;;;;;4988637;28;20023;-74
2021/11/13 10:15:35;;;;;;;29.02;23.48;;;5.30;99.90;;;;;;4976534;28;20546;-74
2021/11/13 10:18:13;;;;;;;28.70;23.15;;;5.30;99.90;;;;;;4989255;28;20084;-75
2021/11/13 10:20:47;;;;;;;25.13;20.85;;;5.30;99.90;;;;;;4974787;28;20030;-75
2021/11/13 10:23:25;;;;;;;30.00;22.70;;;5.40;99.90;;;;;;4977950;28;20022;-75
2021/11/13 10:26:08;;;;;;;25.92;20.98;;;5.50;99.90;;;;;;4983010;28;20046;-76
2021/11/13 10:28:47;;;;;;;27.60;21.75;;;5.60;99.90;;;;;;4972074;28;20023;-76
2021/11/13 10:31:15;;;;;;;27.75;21.70;;;5.60;99.90;;;;;;4975509;28;20171;-74
2021/11/13 10:33:41;;;;;;;27.05;20.60;;;5.70;99.90;;;;;;4975940;28;20026;-75
2021/11/13 10:36:08;;;;;;;24.55;18.85;;;5.70;99.90;;;;;;4987442;28;20100;-75
2021/11/13 10:38:34;;;;;;;24.45;19.75;;;5.60;99.90;;;;;;4987842;28;20429;-76
2021/11/13 10:41:07;;;;;;;29.40;22.15;;;5.60;99.90;;;;;;4975294;28;20023;-76
2021/11/13 10:43:40;;;;;;;27.30;21.75;;;5.50;99.90;;;;;;4969686;28;20505;-76
2021/11/13 10:46:15;;;;;;;25.90;20.45;;;5.50;99.90;;;;;;4981581;28;20030;-75
2021/11/13 10:48:47;;;;;;;26.00;20.70;;;5.50;99.90;;;;;;4985640;28;20378;-76
2021/11/13 10:51:16;;;;;;;22.35;19.63;;;5.50;99.90;;;;;;4976622;28;20413;-76
2021/11/13 10:53:45;;;;;;;27.17;20.05;;;5.40;99.90;;;;;;4982691;28;20034;-75
2021/11/13 10:56:18;;;;;;;22.25;19.02;;;5.50;99.90;;;;;;4988109;28;20023;-75
2021/11/13 10:59:00;;;;;;;25.67;21.92;;;5.40;99.90;;;;;;4974904;28;20027;-74
2021/11/13 11:01:32;;;;;;;23.90;20.73;;;5.40;99.90;;;;;;4954277;29;20027;-76
2021/11/13 11:04:04;;;;;;;22.92;19.98;;;5.40;99.90;;;;;;4983380;28;20535;-76
2021/11/13 11:06:37;;;;;;;25.42;21.50;;;5.50;99.90;;;;;;4972431;28;20043;-75
2021/11/13 11:09:16;;;;;;;23.58;20.30;;;5.50;99.90;;;;;;4974604;28;20380;-75
2021/11/13 11:11:42;;;;;;;24.27;19.90;;;5.50;99.90;;;;;;4974485;28;20039;-76
2021/11/13 11:14:10;;;;;;;25.83;19.90;;;5.50;99.90;;;;;;4979758;28;20053;-75
2021/11/13 11:16:39;;;;;;;27.08;21.58;;;5.50;99.90;;;;;;4981556;28;20040;-75
2021/11/13 11:19:13;;;;;;;24.33;20.45;;;5.60;99.90;;;;;;4980163;28;20105;-75
2021/11/13 11:22:20;;;;;;;22.13;18.85;;;5.50;99.90;;;;;;4979717;28;20041;-76
2021/11/13 11:24:51;;;;;;;26.73;21.27;;;5.50;99.90;;;;;;4933731;29;20502;-76
2021/11/13 11:27:37;;;;;;;32.00;24.45;;;5.40;99.90;;;;;;4933856;29;20046;-76
2021/11/13 11:30:06;;;;;;;32.78;23.88;;;5.50;99.90;;;;;;4970123;28;20039;-76
2021/11/13 11:32:50;;;;;;;32.03;25.60;;;5.50;99.90;;;;;;4982269;28;20451;-75
2021/11/13 11:35:23;;;;;;;33.47;22.13;;;5.40;99.90;;;;;;4979651;28;20026;-75
2021/11/13 11:37:58;;;;;;;28.48;20.00;;;5.40;99.90;;;;;;4981027;28;20113;-76
2021/11/13 11:40:28;;;;;;;25.13;19.90;;;5.50;99.90;;;;;;4968587;28;20033;-76
2021/11/13 11:42:54;;;;;;;24.67;20.65;;;5.50;99.90;;;;;;4979167;28;20027;-75
2021/11/13 11:45:25;;;;;;;28.33;20.75;;;5.50;99.90;;;;;;4985806;28;20099;-76
2021/11/13 11:47:53;;;;;;;25.58;20.75;;;5.50;99.90;;;;;;4989253;28;20032;-76
2021/11/13 11:50:25;;;;;;;24.92;20.70;;;5.50;99.90;;;;;;4983157;28;20042;-75
2021/11/13 11:52:59;;;;;;;24.58;20.55;;;5.40;99.90;;;;;;4988579;28;20026;-76
2021/11/13 11:55:26;;;;;;;24.15;19.55;;;5.50;99.90;;;;;;4981537;28;20026;-76
2021/11/13 11:58:00;;;;;;;24.40;21.13;;;5.50;99.90;;;;;;4985179;28;20035;-76
2021/11/13 12:00:28;;;;;;;25.08;22.02;;;5.60;99.90;;;;;;4961423;28;20023;-76
2021/11/13 12:02:57;;;;;;;26.58;22.13;;;5.50;99.90;;;;;;4984293;28;20037;-77
2021/11/13 12:05:34;;;;;;;25.20;21.90;;;5.50;99.90;;;;;;4986627;28;20027;-76
2021/11/13 12:08:16;;;;;;;25.48;21.92;;;5.70;99.90;;;;;;4968360;28;20026;-76
2021/11/13 12:10:42;;;;;;;24.23;21.58;;;5.70;99.90;;;;;;4979859;28;20030;-77
2021/11/13 12:13:15;;;;;;;28.73;23.65;;;5.70;99.90;;;;;;4983568;28;20038;-76
2021/11/13 12:16:01;;;;;;;25.33;22.23;;;5.60;99.90;;;;;;4976554;28;20599;-77
2021/11/13 12:18:28;;;;;;;30.02;25.20;;;5.80;99.90;;;;;;4972617;28;20031;-77
2021/11/13 12:21:05;;;;;;;30.85;24.40;;;5.90;99.90;;;;;;4986309;28;20035;-77
2021/11/13 12:23:32;;;;;;;24.70;21.17;;;6.00;99.90;;;;;;4958857;28;20023;-76
2021/11/13 12:26:13;;;;;;;22.38;19.20;;;6.10;99.90;;;;;;4970689;28;20065;-77
2021/11/13 12:28:45;;;;;;;24.67;20.60;;;6.20;99.90;;;;;;4979940;28;20089;-77
2021/11/13 12:31:23;;;;;;;22.13;19.30;;;5.90;99.90;;;;;;4981766;28;20027;-75
2021/11/13 12:34:00;;;;;;;26.52;23.63;;;6.10;99.90;;;;;;4985997;28;20034;-75
2021/11/13 12:36:36;;;;;;;205.23;49.28;;;5.90;99.90;;;;;;5001417;28;20036;-75